Time;durP1;ratioP1;P1;durP2;ratioP2;P2;SDS_P1;SDS_P2;PMS_P1;PMS_P2;Temp;Humidity;BMP_temperature;BMP_pressure;BME280_temperature;BME280_humidity;BME280_pressure;Samples;Min_cycle;Max_cycle;Signal;HPM_P1;HPM_P2
2022/11/27 00:00:55;;;;;;;13.27;8.18;;;22.80;45.50;;;;;;7701472;22;80299;-66
2022/11/27 00:03:55;;;;;;;10.95;7.50;;;22.80;45.40;;;;;;7702433;22;80459;-66
2022/11/27 00:06:56;;;;;;;10.60;7.45;;;22.80;45.50;;;;;;7707355;22;80198;-63
2022/11/27 00:09:56;;;;;;;11.02;7.50;;;22.70;45.40;;;;;;7714670;22;86638;-64
2022/11/27 00:12:56;;;;;;;11.15;7.63;;;22.80;45.40;;;;;;7715269;22;81145;-62
2022/11/27 00:15:57;;;;;;;12.63;7.88;;;22.80;45.30;;;;;;7715932;22;80835;-63
2022/11/27 00:18:57;;;;;;;11.68;7.68;;;22.80;45.30;;;;;;7714928;22;80988;-60
2022/11/27 00:21:58;;;;;;;10.85;6.95;;;22.70;45.10;;;;;;7716572;22;81180;-59
2022/11/27 00:24:58;;;;;;;11.27;7.65;;;22.70;45.10;;;;;;7713105;22;80977;-60
2022/11/27 00:27:59;;;;;;;12.20;7.40;;;22.70;45.40;;;;;;7716173;22;81506;-60
2022/11/27 00:30:59;;;;;;;10.93;7.68;;;22.70;45.20;;;;;;7716027;22;80561;-60
2022/11/27 00:34:00;;;;;;;8.98;6.78;;;22.80;44.80;;;;;;7716267;22;80724;-60
2022/11/27 00:37:00;;;;;;;10.57;7.78;;;22.70;45.00;;;;;;7714224;22;80503;-59
2022/11/27 00:40:01;;;;;;;9.88;7.25;;;22.70;44.90;;;;;;7713787;22;80589;-58
2022/11/27 00:43:01;;;;;;;11.23;7.03;;;22.70;44.80;;;;;;7715063;22;79942;-59
2022/11/27 00:46:02;;;;;;;11.05;7.10;;;22.70;45.00;;;;;;7716324;22;81355;-59
2022/11/27 00:49:02;;;;;;;11.40;7.32;;;22.70;45.00;;;;;;7718058;22;80281;-59
2022/11/27 00:52:03;;;;;;;9.90;7.07;;;22.70;45.00;;;;;;7716029;22;81944;-59
2022/11/27 00:55:03;;;;;;;10.60;7.20;;;22.70;44.80;;;;;;7717567;22;80264;-59
2022/11/27 00:58:04;;;;;;;11.30;7.45;;;22.70;44.90;;;;;;7714026;22;81334;-59
2022/11/27 01:01:04;;;;;;;10.77;7.10;;;22.70;44.90;;;;;;7716607;22;80570;-60
2022/11/27 01:04:05;;;;;;;11.57;7.57;;;22.70;44.80;;;;;;7716645;22;81081;-59
2022/11/27 01:07:05;;;;;;;12.30;7.30;;;22.70;44.90;;;;;;7715687;22;80729;-58
2022/11/27 01:10:06;;;;;;;9.77;6.85;;;22.70;44.90;;;;;;7716747;22;81177;-60
2022/11/27 01:13:06;;;;;;;12.65;7.10;;;22.70;44.60;;;;;;7689192;22;80392;-58
2022/11/27 01:16:07;;;;;;;10.45;7.18;;;22.70;44.90;;;;;;7712096;22;80774;-59
2022/11/27 01:19:07;;;;;;;9.98;6.82;;;22.70;44.70;;;;;;7711185;22;80396;-58
2022/11/27 01:22:08;;;;;;;10.80;7.10;;;22.70;44.70;;;;;;7715470;22;80216;-59
2022/11/27 01:25:08;;;;;;;12.23;7.30;;;22.70;45.00;;;;;;7715654;22;81484;-59
2022/11/27 01:28:08;;;;;;;10.75;7.03;;;22.70;44.80;;;;;;7716693;22;80698;-59
2022/11/27 01:31:09;;;;;;;10.15;7.05;;;22.70;44.70;;;;;;7717284;22;81075;-67
2022/11/27 01:34:09;;;;;;;10.52;7.13;;;22.70;44.70;;;;;;7719203;22;81237;-69
2022/11/27 01:37:10;;;;;;;10.80;6.82;;;22.70;44.50;;;;;;7716347;22;80308;-64
2022/11/27 01:40:10;;;;;;;12.88;7.75;;;22.70;44.50;;;;;;7712980;22;80648;-65
2022/11/27 01:43:11;;;;;;;11.30;7.40;;;22.70;44.60;;;;;;7716293;22;81524;-69
2022/11/27 01:46:11;;;;;;;8.82;6.05;;;22.70;44.30;;;;;;7717730;22;80500;-68
2022/11/27 01:49:12;;;;;;;11.52;7.60;;;22.70;44.50;;;;;;7718798;22;81053;-70
2022/11/27 01:52:12;;;;;;;9.75;6.38;;;22.60;44.50;;;;;;7719136;22;80593;-69
2022/11/27 01:55:17;;;;;;;10.40;6.88;;;22.60;44.30;;;;;;7717817;22;80539;-69
2022/11/27 01:58:18;;;;;;;9.80;6.40;;;22.60;44.30;;;;;;7715554;22;80316;-66
2022/11/27 02:01:18;;;;;;;10.32;7.05;;;22.60;44.40;;;;;;7716245;22;80547;-66
2022/11/27 02:04:19;;;;;;;10.90;6.63;;;22.60;44.30;;;;;;7715519;22;80197;-68
2022/11/27 02:07:19;;;;;;;9.35;6.38;;;22.60;44.40;;;;;;7717586;22;80324;-68
2022/11/27 02:10:20;;;;;;;9.35;6.60;;;22.60;44.10;;;;;;7715434;22;81034;-69
2022/11/27 02:13:20;;;;;;;10.68;6.85;;;22.60;44.30;;;;;;7715659;22;81399;-70
2022/11/27 02:16:21;;;;;;;11.65;6.90;;;22.60;44.20;;;;;;7716377;22;80872;-68
2022/11/27 02:19:21;;;;;;;9.88;6.22;;;22.60;44.30;;;;;;7715127;22;81271;-68
2022/11/27 02:22:22;;;;;;;9.40;6.38;;;22.60;44.20;;;;;;7717274;22;80445;-70
2022/11/27 02:25:22;;;;;;;9.98;6.88;;;22.60;44.30;;;;;;7715218;22;81278;-70
2022/11/27 02:28:23;;;;;;;10.02;6.65;;;22.60;44.40;;;;;;7715646;22;80337;-70
2022/11/27 02:31:23;;;;;;;9.75;6.35;;;22.50;44.40;;;;;;7717831;22;81412;-68
2022/11/27 02:34:24;;;;;;;10.20;6.93;;;22.60;44.20;;;;;;7715852;22;80242;-67
2022/11/27 02:37:25;;;;;;;9.63;6.38;;;22.60;44.40;;;;;;7715691;22;80466;-68
2022/11/27 02:40:25;;;;;;;9.07;6.50;;;22.60;44.20;;;;;;7715618;22;80011;-68
2022/11/27 02:43:26;;;;;;;9.75;6.57;;;22.60;44.30;;;;;;7715832;22;80335;-71
2022/11/27 02:46:26;;;;;;;8.88;5.85;;;22.60;44.30;;;;;;7714560;22;80696;-70
2022/11/27 02:49:27;;;;;;;8.35;6.05;;;22.60;44.30;;;;;;7717992;22;80150;-68
2022/11/27 02:52:27;;;;;;;10.07;6.40;;;22.60;44.30;;;;;;7715296;22;80279;-66
2022/11/27 02:55:28;;;;;;;10.13;5.90;;;22.60;44.40;;;;;;7715476;22;80563;-67
2022/11/27 02:58:28;;;;;;;9.13;6.53;;;22.60;44.30;;;;;;7715949;22;80747;-68
2022/11/27 03:01:28;;;;;;;9.88;6.57;;;22.60;44.40;;;;;;7715138;22;80885;-68
2022/11/27 03:04:32;;;;;;;9.18;6.38;;;22.60;44.20;;;;;;7718224;22;81517;-60
2022/11/27 03:07:32;;;;;;;9.65;6.30;;;22.60;44.20;;;;;;7718265;22;80497;-61
2022/11/27 03:10:33;;;;;;;8.52;6.13;;;22.60;44.20;;;;;;7715858;22;80149;-60
2022/11/27 03:13:34;;;;;;;9.68;6.38;;;22.50;44.30;;;;;;7685414;22;82018;-59
2022/11/27 03:16:35;;;;;;;10.65;6.95;;;22.50;44.10;;;;;;7715012;22;80152;-59
2022/11/27 03:19:35;;;;;;;8.35;5.80;;;22.50;44.10;;;;;;7718165;22;80791;-59
2022/11/27 03:22:36;;;;;;;9.23;6.15;;;22.50;44.10;;;;;;7712550;22;80832;-66
2022/11/27 03:25:36;;;;;;;9.63;6.03;;;22.50;44.10;;;;;;7715027;22;80883;-68
2022/11/27 03:28:37;;;;;;;9.18;6.35;;;22.50;44.00;;;;;;7714531;22;80074;-67
2022/11/27 03:31:37;;;;;;;9.77;6.70;;;22.50;44.00;;;;;;7715541;22;80433;-65
2022/11/27 03:34:38;;;;;;;10.57;6.43;;;22.50;44.10;;;;;;7716403;22;80841;-61
2022/11/27 03:37:38;;;;;;;9.55;7.03;;;22.50;43.90;;;;;;7715453;22;81363;-66
2022/11/27 03:40:39;;;;;;;9.25;6.45;;;22.50;43.80;;;;;;7715077;22;81099;-66
2022/11/27 03:43:39;;;;;;;10.07;6.32;;;22.50;43.80;;;;;;7716804;22;81093;-66
2022/11/27 03:46:40;;;;;;;9.65;6.85;;;22.50;43.80;;;;;;7714457;22;80391;-67
2022/11/27 03:49:40;;;;;;;9.13;6.63;;;22.50;43.70;;;;;;7717809;22;79953;-66
2022/11/27 03:52:41;;;;;;;8.13;5.97;;;22.50;43.80;;;;;;7712710;22;80807;-66
2022/11/27 03:55:41;;;;;;;9.85;6.55;;;22.50;43.80;;;;;;7718671;22;80626;-66
2022/11/27 03:58:42;;;;;;;10.35;6.40;;;22.50;43.80;;;;;;7714116;22;80350;-66
2022/11/27 04:01:42;;;;;;;9.07;6.18;;;22.50;43.70;;;;;;7714512;22;80673;-67
2022/11/27 04:04:43;;;;;;;8.70;6.10;;;22.50;43.70;;;;;;7714774;22;80940;-67
2022/11/27 04:07:43;;;;;;;10.98;7.00;;;22.50;43.60;;;;;;7718334;22;80685;-67
2022/11/27 04:10:44;;;;;;;10.90;6.70;;;22.50;43.60;;;;;;7715103;22;81477;-67
2022/11/27 04:13:44;;;;;;;8.43;6.30;;;22.50;43.60;;;;;;7713667;22;80435;-65
2022/11/27 04:16:45;;;;;;;9.68;6.25;;;22.50;43.70;;;;;;7715096;22;80576;-65
2022/11/27 04:19:45;;;;;;;11.02;7.20;;;22.50;43.70;;;;;;7715331;22;80766;-65
2022/11/27 04:22:46;;;;;;;9.07;6.65;;;22.50;43.20;;;;;;7718542;22;81396;-66
2022/11/27 04:25:46;;;;;;;9.00;6.40;;;22.50;43.20;;;;;;7714951;22;80833;-66
2022/11/27 04:28:46;;;;;;;9.35;6.57;;;22.60;43.10;;;;;;7715753;22;80545;-66
2022/11/27 04:31:47;;;;;;;9.82;6.90;;;22.60;43.20;;;;;;7716771;22;80898;-66
2022/11/27 04:34:47;;;;;;;11.10;6.97;;;22.70;43.00;;;;;;7715884;22;80873;-68
2022/11/27 04:37:48;;;;;;;10.73;6.75;;;22.70;42.80;;;;;;7716648;22;81438;-70
2022/11/27 04:40:48;;;;;;;11.00;6.90;;;22.80;42.90;;;;;;7714732;22;80613;-67
2022/11/27 04:43:49;;;;;;;11.55;7.45;;;22.80;42.80;;;;;;7715399;22;80931;-66
2022/11/27 04:46:49;;;;;;;12.55;6.97;;;22.90;43.10;;;;;;7715179;22;81119;-72
2022/11/27 04:49:50;;;;;;;11.38;7.22;;;22.90;43.30;;;;;;7714670;22;80320;-72
2022/11/27 04:52:50;;;;;;;10.52;6.65;;;22.90;43.30;;;;;;7711555;22;81440;-73
2022/11/27 04:55:51;;;;;;;9.00;6.35;;;23.00;43.50;;;;;;7716792;22;80995;-71
2022/11/27 04:58:52;;;;;;;11.68;6.88;;;23.00;43.70;;;;;;7687814;22;81360;-69
2022/11/27 05:01:52;;;;;;;9.60;6.72;;;23.00;43.70;;;;;;7713722;22;80444;-70
2022/11/27 05:04:53;;;;;;;9.43;6.60;;;23.00;44.30;;;;;;7715829;22;80646;-68
2022/11/27 05:07:54;;;;;;;14.23;6.72;;;23.00;44.50;;;;;;7712992;22;80822;-71
2022/11/27 05:10:54;;;;;;;11.07;7.22;;;23.10;44.70;;;;;;7715347;22;80771;-59
2022/11/27 05:17:14;;;;;;;12.38;6.70;;;23.10;45.10;;;;;;7713226;22;80718;-60
2022/11/27 05:20:14;;;;;;;10.05;6.90;;;23.10;45.30;;;;;;7714393;22;80358;-59
2022/11/27 05:23:15;;;;;;;10.35;6.95;;;23.10;45.40;;;;;;7714950;22;80426;-60
2022/11/27 05:26:16;;;;;;;14.02;6.63;;;23.10;45.70;;;;;;7717239;22;80364;-60
2022/11/27 05:29:16;;;;;;;9.30;6.75;;;23.10;45.80;;;;;;7714993;22;81104;-72
2022/11/27 05:32:16;;;;;;;9.45;6.28;;;23.20;45.70;;;;;;7716145;22;83634;-66
2022/11/27 05:35:17;;;;;;;10.05;6.95;;;23.20;45.90;;;;;;7716646;22;80698;-66
2022/11/27 05:38:17;;;;;;;11.80;6.82;;;23.20;45.90;;;;;;7718298;22;81127;-69
2022/11/27 05:41:18;;;;;;;13.70;6.55;;;23.20;46.00;;;;;;7682954;22;83305;-70
2022/11/27 05:44:18;;;;;;;11.70;6.80;;;23.20;46.20;;;;;;7711395;22;80837;-66
2022/11/27 05:47:19;;;;;;;11.45;7.53;;;23.20;46.40;;;;;;7717469;22;80570;-67
2022/11/27 05:50:19;;;;;;;11.40;7.40;;;23.20;46.20;;;;;;7715672;22;80516;-61
2022/11/27 05:53:20;;;;;;;11.02;7.38;;;23.20;46.50;;;;;;7716511;22;81407;-67
2022/11/27 05:56:20;;;;;;;15.02;7.07;;;23.20;46.40;;;;;;7713261;22;81129;-68
2022/11/27 05:59:21;;;;;;;9.75;6.95;;;23.20;46.20;;;;;;7718705;22;80343;-73
2022/11/27 06:02:21;;;;;;;10.98;7.47;;;23.20;46.10;;;;;;7715239;22;81660;-70
2022/11/27 06:05:22;;;;;;;11.90;7.07;;;23.20;46.00;;;;;;7716224;22;80411;-59
2022/11/27 06:08:22;;;;;;;13.07;7.22;;;23.20;46.40;;;;;;7715430;22;81413;-59
2022/11/27 06:11:23;;;;;;;28.77;8.48;;;23.30;46.30;;;;;;7714402;22;80467;-59
2022/11/27 06:14:23;;;;;;;11.93;7.93;;;23.30;45.80;;;;;;7716250;22;80098;-60
2022/11/27 06:17:24;;;;;;;13.57;7.63;;;23.30;45.40;;;;;;7715530;22;80255;-60
2022/11/27 06:20:24;;;;;;;11.00;7.55;;;23.30;45.60;;;;;;7718138;22;81008;-59
2022/11/27 06:23:25;;;;;;;9.18;6.47;;;23.20;46.00;;;;;;7709742;22;80514;-60
2022/11/27 06:26:25;;;;;;;9.15;5.53;;;23.10;47.50;;;;;;7683321;22;80504;-70
2022/11/27 06:29:26;;;;;;;8.65;5.60;;;23.00;48.60;;;;;;7696434;22;81637;-71
2022/11/27 06:32:26;;;;;;;10.65;5.45;;;22.90;49.50;;;;;;7706159;22;80260;-71
2022/11/27 06:35:27;;;;;;;7.15;4.85;;;22.80;49.90;;;;;;7706788;22;80497;-72
2022/11/27 06:38:27;;;;;;;8.18;5.20;;;22.80;50.90;;;;;;7709327;22;80820;-71
2022/11/27 06:41:28;;;;;;;7.03;4.63;;;22.80;51.10;;;;;;7709980;22;80972;-71
2022/11/27 06:44:28;;;;;;;7.13;4.90;;;22.70;51.90;;;;;;7714468;22;80193;-68
2022/11/27 06:47:29;;;;;;;6.63;4.53;;;22.70;52.10;;;;;;7716613;22;81315;-72
2022/11/27 06:50:29;;;;;;;6.43;4.55;;;22.70;52.70;;;;;;7715941;22;80338;-66
2022/11/27 06:53:30;;;;;;;8.20;5.05;;;22.70;53.30;;;;;;7716926;22;80392;-73
2022/11/27 06:56:30;;;;;;;8.48;4.80;;;22.70;53.60;;;;;;7713910;22;80483;-65
2022/11/27 06:59:31;;;;;;;14.48;4.43;;;22.60;54.20;;;;;;7715282;22;80486;-66
2022/11/27 07:02:31;;;;;;;8.63;4.65;;;22.60;54.60;;;;;;7717635;22;80640;-66
2022/11/27 07:05:32;;;;;;;7.05;4.35;;;22.60;54.40;;;;;;7716568;22;80816;-67
2022/11/27 07:08:32;;;;;;;7.95;4.03;;;22.50;54.50;;;;;;7716864;22;80192;-67
2022/11/27 07:11:33;;;;;;;6.22;4.20;;;22.50;54.50;;;;;;7716583;22;80815;-70
2022/11/27 07:14:33;;;;;;;6.38;4.35;;;22.50;55.20;;;;;;7718935;22;80476;-67
2022/11/27 07:17:34;;;;;;;4.47;3.60;;;22.50;55.40;;;;;;7717754;22;80619;-72
2022/11/27 07:20:34;;;;;;;8.48;3.90;;;22.40;56.40;;;;;;7715360;22;80054;-61
2022/11/27 07:23:35;;;;;;;9.23;4.43;;;22.50;57.00;;;;;;7709380;22;80777;-61
2022/11/27 07:26:35;;;;;;;8.93;3.80;;;22.60;56.70;;;;;;7707835;22;80277;-61
2022/11/27 07:29:36;;;;;;;10.13;4.47;;;22.70;57.20;;;;;;7710012;22;81491;-60
2022/11/27 07:32:36;;;;;;;7.22;4.38;;;22.80;57.70;;;;;;7707863;22;80459;-60
2022/11/27 07:35:37;;;;;;;5.85;3.70;;;22.80;58.30;;;;;;7708444;22;81446;-57
2022/11/27 07:38:37;;;;;;;10.65;3.83;;;22.80;58.20;;;;;;7706652;22;80142;-66
2022/11/27 07:41:38;;;;;;;6.72;4.28;;;22.80;58.60;;;;;;7711738;22;80381;-65
2022/11/27 07:44:38;;;;;;;8.57;4.43;;;22.90;57.70;;;;;;7710675;22;80442;-68
2022/11/27 07:47:39;;;;;;;8.07;4.80;;;22.80;57.90;;;;;;7698072;22;81982;-69
2022/11/27 07:50:40;;;;;;;7.07;4.15;;;22.90;58.90;;;;;;7678929;22;81115;-68
2022/11/27 07:53:40;;;;;;;8.60;4.20;;;22.90;59.70;;;;;;7689873;22;81019;-72
2022/11/27 07:56:41;;;;;;;7.70;3.92;;;22.80;61.50;;;;;;7689895;22;81585;-70
2022/11/27 07:59:41;;;;;;;10.70;4.35;;;22.90;62.00;;;;;;7696118;22;82928;-64
2022/11/27 08:02:42;;;;;;;8.90;4.18;;;22.90;62.70;;;;;;7700217;22;81207;-65
2022/11/27 08:05:42;;;;;;;5.32;3.72;;;22.90;63.60;;;;;;7700349;22;80766;-67
2022/11/27 08:08:43;;;;;;;5.28;3.47;;;22.90;64.00;;;;;;7700104;22;81341;-67
2022/11/27 08:11:43;;;;;;;5.05;3.63;;;22.90;64.30;;;;;;7700225;22;80865;-63
2022/11/27 08:14:43;;;;;;;3.95;3.00;;;22.80;64.10;;;;;;7676896;22;81699;-68
2022/11/27 08:17:44;;;;;;;5.60;2.97;;;22.60;65.10;;;;;;7700447;22;81707;-66
2022/11/27 08:20:44;;;;;;;16.02;3.17;;;22.60;65.10;;;;;;7701561;22;79969;-68
2022/11/27 08:23:45;;;;;;;7.78;3.17;;;22.60;64.70;;;;;;7702394;22;80685;-66
2022/11/27 08:26:45;;;;;;;4.32;2.92;;;22.40;65.00;;;;;;7701693;22;81621;-70
2022/11/27 08:29:46;;;;;;;6.38;2.60;;;22.40;65.60;;;;;;7712973;22;81470;-67
2022/11/27 08:32:47;;;;;;;7.18;3.47;;;22.40;65.80;;;;;;7714761;22;81092;-60
2022/11/27 08:35:47;;;;;;;9.90;2.50;;;22.40;65.30;;;;;;7713057;22;80387;-60
2022/11/27 08:38:48;;;;;;;7.78;2.50;;;22.40;64.90;;;;;;7686691;22;80796;-58
2022/11/27 08:41:48;;;;;;;4.20;2.90;;;22.30;64.00;;;;;;7710478;22;82337;-59
2022/11/27 08:44:49;;;;;;;10.43;2.80;;;22.20;64.10;;;;;;7695271;22;80758;-61
2022/11/27 08:47:49;;;;;;;5.25;2.88;;;22.30;63.50;;;;;;7704297;22;81605;-60
2022/11/27 08:50:50;;;;;;;5.72;2.65;;;22.30;63.70;;;;;;7679006;22;82404;-76
2022/11/27 08:53:50;;;;;;;5.90;2.80;;;22.30;63.10;;;;;;7709762;22;80416;-71
2022/11/27 08:56:51;;;;;;;15.70;3.28;;;22.20;63.20;;;;;;7712525;22;80766;-72
2022/11/27 08:59:52;;;;;;;5.97;3.33;;;22.20;63.10;;;;;;7706802;22;80605;-66
2022/11/27 09:02:52;;;;;;;7.00;3.30;;;22.20;62.30;;;;;;7707718;22;80258;-71
2022/11/27 09:05:53;;;;;;;5.35;3.97;;;22.20;61.70;;;;;;7704973;22;82126;-70
2022/11/27 09:08:53;;;;;;;7.05;3.70;;;22.10;62.30;;;;;;7707836;22;81024;-60
2022/11/27 09:11:54;;;;;;;4.55;3.85;;;22.10;61.50;;;;;;7709283;22;81762;-69
2022/11/27 09:14:54;;;;;;;4.93;2.97;;;22.10;62.20;;;;;;7712800;22;80272;-69
2022/11/27 09:17:55;;;;;;;6.00;3.60;;;22.20;61.50;;;;;;7707216;22;81235;-65
2022/11/27 09:20:55;;;;;;;4.85;3.13;;;22.20;61.70;;;;;;7704821;22;80481;-72
2022/11/27 09:23:56;;;;;;;6.75;3.25;;;22.20;60.90;;;;;;7710902;22;80478;-70
2022/11/27 09:26:56;;;;;;;8.57;3.28;;;22.10;61.50;;;;;;7712534;22;80601;-70
2022/11/27 09:29:57;;;;;;;5.38;3.40;;;22.10;62.00;;;;;;7691944;22;81644;-69
2022/11/27 09:32:58;;;;;;;4.88;3.25;;;22.10;61.60;;;;;;7711553;22;81576;-68
2022/11/27 09:35:58;;;;;;;4.72;3.35;;;22.10;61.50;;;;;;7716997;22;81694;-67
2022/11/27 09:38:59;;;;;;;5.07;2.92;;;22.10;60.80;;;;;;7717457;22;80952;-66
2022/11/27 09:42:00;;;;;;;5.53;2.95;;;22.10;60.80;;;;;;7717854;22;80621;-68
2022/11/27 09:45:01;;;;;;;4.00;3.05;;;22.10;60.40;;;;;;7717903;22;80465;-74
2022/11/27 09:48:01;;;;;;;4.45;3.03;;;22.00;60.60;;;;;;7712290;22;80324;-58
2022/11/27 09:51:02;;;;;;;4.95;3.10;;;22.00;60.30;;;;;;7715542;22;80178;-62
2022/11/27 09:54:02;;;;;;;4.53;3.08;;;22.10;60.60;;;;;;7719576;22;80186;-61
2022/11/27 09:57:03;;;;;;;3.92;2.80;;;22.10;61.20;;;;;;7716142;22;80689;-64
2022/11/27 10:00:04;;;;;;;5.05;3.10;;;22.10;60.70;;;;;;7715080;22;82779;-61
2022/11/27 10:03:05;;;;;;;5.15;2.90;;;22.10;60.80;;;;;;7711480;22;81610;-60
2022/11/27 10:06:06;;;;;;;3.25;2.40;;;22.20;60.70;;;;;;7715817;22;80651;-64
2022/11/27 10:09:06;;;;;;;4.03;3.13;;;22.20;61.10;;;;;;7708196;22;86517;-66
2022/11/27 10:12:07;;;;;;;5.60;3.03;;;22.20;60.40;;;;;;7707943;22;80778;-60
2022/11/27 10:15:07;;;;;;;3.17;2.60;;;22.20;60.20;;;;;;7710227;22;80392;-60
2022/11/27 10:18:08;;;;;;;4.40;2.88;;;22.20;60.40;;;;;;7703230;22;81323;-59
2022/11/27 10:21:08;;;;;;;3.90;2.83;;;22.30;60.10;;;;;;7682931;22;82445;-61
2022/11/27 10:24:09;;;;;;;3.08;2.58;;;22.20;59.60;;;;;;7710144;22;80620;-64
2022/11/27 10:27:09;;;;;;;3.05;2.75;;;22.30;59.40;;;;;;7708571;22;80426;-66
2022/11/27 10:30:10;;;;;;;3.58;3.08;;;22.30;59.50;;;;;;7699975;22;80983;-70
2022/11/27 10:33:10;;;;;;;6.22;3.00;;;22.30;58.90;;;;;;7711100;22;80404;-65
2022/11/27 10:36:11;;;;;;;3.70;3.00;;;22.30;59.00;;;;;;7711091;22;80338;-72
2022/11/27 10:39:11;;;;;;;4.10;3.13;;;22.30;59.00;;;;;;7716145;22;81755;-71
2022/11/27 10:42:12;;;;;;;5.35;2.90;;;22.40;58.90;;;;;;7716217;22;80888;-57
2022/11/27 10:45:13;;;;;;;5.40;3.35;;;22.40;59.00;;;;;;7714045;22;80559;-58
2022/11/27 10:48:13;;;;;;;3.80;3.20;;;22.40;58.80;;;;;;7716885;22;80776;-61
2022/11/27 10:51:14;;;;;;;4.25;3.00;;;22.40;59.20;;;;;;7716005;22;80177;-58
2022/11/27 10:54:14;;;;;;;4.32;3.00;;;22.40;58.80;;;;;;7714709;22;81200;-56
2022/11/27 10:57:15;;;;;;;5.90;2.80;;;22.40;59.00;;;;;;7712393;22;81286;-60
2022/11/27 11:00:15;;;;;;;5.88;3.25;;;22.50;58.80;;;;;;7709528;22;80421;-72
2022/11/27 11:03:16;;;;;;;5.03;2.90;;;22.40;58.20;;;;;;7705882;22;81939;-69
2022/11/27 11:06:16;;;;;;;16.58;3.15;;;22.40;58.00;;;;;;7704787;22;81443;-68
2022/11/27 11:09:17;;;;;;;4.82;3.13;;;22.40;57.70;;;;;;7718561;22;81204;-71
2022/11/27 11:12:19;;;;;;;3.95;3.00;;;22.40;57.10;;;;;;7713659;22;80115;-68
2022/11/27 11:15:19;;;;;;;3.50;3.00;;;22.40;56.90;;;;;;7711770;22;80436;-64
2022/11/27 11:18:20;;;;;;;4.85;3.03;;;22.40;56.80;;;;;;7718550;22;81286;-59
2022/11/27 11:21:20;;;;;;;4.70;3.00;;;22.40;56.40;;;;;;7712475;22;80493;-61
2022/11/27 11:24:21;;;;;;;4.00;3.15;;;22.30;56.10;;;;;;7715274;22;80505;-60
2022/11/27 11:27:21;;;;;;;4.10;3.08;;;22.30;56.30;;;;;;7717478;22;80700;-60
2022/11/27 11:30:22;;;;;;;7.00;3.55;;;22.40;56.40;;;;;;7716262;22;80805;-60
2022/11/27 11:33:22;;;;;;;6.68;3.80;;;22.60;56.50;;;;;;7715821;22;82405;-60
2022/11/27 11:36:23;;;;;;;6.65;4.63;;;22.70;55.50;;;;;;7718041;22;80742;-63
2022/11/27 11:39:23;;;;;;;8.82;4.80;;;22.80;55.00;;;;;;7714856;22;80631;-69
2022/11/27 11:42:24;;;;;;;11.52;5.25;;;22.90;55.60;;;;;;7715853;22;80727;-73
2022/11/27 11:45:24;;;;;;;8.82;5.15;;;23.00;54.80;;;;;;7715846;22;81001;-68
2022/11/27 11:48:25;;;;;;;12.85;6.07;;;23.00;55.70;;;;;;7718388;22;80594;-70
2022/11/27 11:51:25;;;;;;;13.77;7.03;;;23.10;57.10;;;;;;7715437;22;80603;-70
2022/11/27 11:54:26;;;;;;;14.57;6.88;;;23.10;55.90;;;;;;7714829;22;80353;-68
2022/11/27 11:57:26;;;;;;;18.13;6.53;;;23.20;56.00;;;;;;7716271;22;80731;-70
2022/11/27 12:00:27;;;;;;;19.20;6.72;;;23.20;57.30;;;;;;7715122;22;81561;-71
2022/11/27 12:03:27;;;;;;;13.88;6.55;;;23.20;56.50;;;;;;7716714;22;80771;-74
2022/11/27 12:06:28;;;;;;;17.83;7.25;;;23.20;57.70;;;;;;7714957;22;80452;-63
2022/11/27 12:09:28;;;;;;;14.60;7.50;;;23.30;55.80;;;;;;7717529;22;81085;-66
2022/11/27 12:12:29;;;;;;;12.57;7.32;;;23.20;55.10;;;;;;7713581;22;80214;-68
2022/11/27 12:15:29;;;;;;;18.65;7.32;;;23.30;55.50;;;;;;7715688;22;80547;-75
2022/11/27 12:18:30;;;;;;;14.93;6.35;;;23.30;54.50;;;;;;7714906;22;80199;-75
2022/11/27 12:21:30;;;;;;;14.15;7.15;;;23.30;54.80;;;;;;7714993;22;81193;-70
2022/11/27 12:24:31;;;;;;;17.67;6.68;;;23.30;54.90;;;;;;7717783;22;80537;-75
2022/11/27 12:27:31;;;;;;;12.45;7.63;;;23.30;53.70;;;;;;7711986;22;80839;-76
2022/11/27 12:30:32;;;;;;;15.05;7.82;;;23.40;54.10;;;;;;7714259;22;80716;-74
2022/11/27 12:33:32;;;;;;;14.02;7.13;;;23.40;53.80;;;;;;7707019;22;81085;-71
2022/11/27 12:36:33;;;;;;;13.90;7.70;;;23.40;53.60;;;;;;7709128;22;81633;-71
2022/11/27 12:39:33;;;;;;;18.52;8.10;;;23.40;53.30;;;;;;7703471;22;80803;-70
2022/11/27 12:42:34;;;;;;;16.38;8.95;;;23.40;52.80;;;;;;7714817;22;81468;-65
2022/11/27 12:45:34;;;;;;;14.48;7.90;;;23.40;52.70;;;;;;7718972;22;81619;-72
2022/11/27 12:48:35;;;;;;;13.70;8.18;;;23.40;52.20;;;;;;7716156;22;80534;-71
2022/11/27 12:51:35;;;;;;;16.50;8.18;;;23.50;52.70;;;;;;7717016;22;80822;-64
2022/11/27 12:54:36;;;;;;;17.20;8.85;;;23.40;52.80;;;;;;7717126;22;80488;-64
2022/11/27 12:57:36;;;;;;;12.23;7.90;;;23.40;52.70;;;;;;7716479;22;80711;-63
2022/11/27 13:00:37;;;;;;;14.82;9.38;;;23.40;52.50;;;;;;7721257;22;80438;-64
2022/11/27 13:03:37;;;;;;;14.13;8.40;;;23.40;52.60;;;;;;7721173;22;80692;-65
2022/11/27 13:06:38;;;;;;;13.68;8.68;;;23.40;52.40;;;;;;7719913;22;80228;-65
2022/11/27 13:09:38;;;;;;;16.02;7.85;;;23.40;52.10;;;;;;7721628;22;81022;-64
2022/11/27 13:12:39;;;;;;;14.20;7.53;;;23.40;53.00;;;;;;7722430;22;81894;-63
2022/11/27 13:15:39;;;;;;;15.82;9.32;;;23.50;53.30;;;;;;7722901;22;80638;-64
2022/11/27 13:18:40;;;;;;;13.20;8.50;;;23.50;53.40;;;;;;7720500;22;81316;-64
2022/11/27 13:21:40;;;;;;;13.20;8.20;;;23.50;53.20;;;;;;7720110;22;80071;-62
2022/11/27 13:24:41;;;;;;;15.60;8.23;;;23.50;53.00;;;;;;7720051;22;81858;-59
2022/11/27 13:27:41;;;;;;;10.80;7.90;;;23.50;52.50;;;;;;7720775;22;81304;-67
2022/11/27 13:30:43;;;;;;;16.50;8.07;;;23.50;52.60;;;;;;7719638;22;80158;-63
2022/11/27 13:33:43;;;;;;;14.27;8.10;;;23.40;52.00;;;;;;7721071;22;80698;-66
2022/11/27 13:36:44;;;;;;;13.80;9.07;;;23.40;54.20;;;;;;7720316;22;80499;-62
2022/11/27 13:39:44;;;;;;;18.00;9.15;;;23.40;54.40;;;;;;7693079;22;80969;-63
2022/11/27 13:42:45;;;;;;;13.45;9.00;;;23.40;54.30;;;;;;7719349;22;81086;-67
2022/11/27 13:45:45;;;;;;;13.02;7.40;;;23.30;54.40;;;;;;7721916;22;80316;-62
2022/11/27 13:48:46;;;;;;;12.20;8.40;;;23.40;54.30;;;;;;7705316;22;81098;-59
2022/11/27 13:51:46;;;;;;;13.00;7.45;;;23.40;53.50;;;;;;7716187;22;80726;-60
2022/11/27 13:54:47;;;;;;;13.68;8.48;;;23.40;53.50;;;;;;7716046;22;81690;-60
2022/11/27 13:57:47;;;;;;;15.07;8.50;;;23.40;53.40;;;;;;7700201;22;81684;-57
2022/11/27 14:00:48;;;;;;;13.32;7.38;;;23.40;53.20;;;;;;7712844;22;81090;-62
2022/11/27 14:03:48;;;;;;;17.25;8.13;;;23.40;53.10;;;;;;7718519;22;80313;-59
2022/11/27 14:06:49;;;;;;;17.55;8.45;;;23.40;53.00;;;;;;7709810;22;80634;-60
2022/11/27 14:09:49;;;;;;;13.05;8.25;;;23.40;52.90;;;;;;7712743;22;81552;-60
2022/11/27 14:12:50;;;;;;;13.90;7.32;;;23.50;52.90;;;;;;7717612;22;81918;-58
2022/11/27 14:15:50;;;;;;;13.02;7.32;;;23.40;52.90;;;;;;7711092;22;80751;-61
2022/11/27 14:18:51;;;;;;;12.63;8.32;;;23.40;53.10;;;;;;7712651;22;80239;-60
2022/11/27 14:21:51;;;;;;;12.38;8.15;;;23.40;52.90;;;;;;7710597;22;81103;-70
2022/11/27 14:24:52;;;;;;;11.68;7.93;;;23.40;52.50;;;;;;7718279;22;80850;-63
2022/11/27 14:27:52;;;;;;;12.65;7.75;;;23.40;52.40;;;;;;7722287;22;81633;-62
2022/11/27 14:30:54;;;;;;;11.30;8.00;;;23.50;52.00;;;;;;7718359;22;80017;-62
2022/11/27 14:33:54;;;;;;;12.07;7.85;;;23.50;51.90;;;;;;7721066;22;80649;-64
2022/11/27 14:36:55;;;;;;;12.82;7.97;;;23.50;51.50;;;;;;7717370;22;81674;-64
2022/11/27 14:39:55;;;;;;;15.30;9.07;;;23.40;51.30;;;;;;7721577;22;80359;-60
2022/11/27 14:42:56;;;;;;;11.63;8.50;;;23.40;51.10;;;;;;7719890;22;80460;-62
2022/11/27 14:45:56;;;;;;;12.35;8.82;;;23.40;51.00;;;;;;7719100;22;80466;-57
2022/11/27 14:48:57;;;;;;;14.05;8.68;;;23.40;50.90;;;;;;7721861;22;80419;-59
2022/11/27 14:51:57;;;;;;;13.80;9.15;;;23.40;50.80;;;;;;7715931;22;81127;-61
2022/11/27 14:54:58;;;;;;;13.55;9.48;;;23.40;50.40;;;;;;7714517;22;80797;-60
2022/11/27 14:57:58;;;;;;;14.25;9.98;;;23.40;50.20;;;;;;7714304;22;80643;-61
2022/11/27 15:00:59;;;;;;;15.35;9.60;;;23.30;50.30;;;;;;7717022;22;82963;-62
2022/11/27 15:04:00;;;;;;;13.82;9.88;;;23.30;50.30;;;;;;7718902;22;82945;-60
2022/11/27 15:07:00;;;;;;;16.55;10.50;;;23.30;50.20;;;;;;7715127;22;80234;-61
2022/11/27 15:10:00;;;;;;;15.55;10.63;;;23.30;50.10;;;;;;7718319;22;82999;-61
2022/11/27 15:13:01;;;;;;;17.40;10.93;;;23.30;50.10;;;;;;7715282;22;83490;-60
2022/11/27 15:16:02;;;;;;;16.52;10.25;;;23.30;50.00;;;;;;7715177;22;84056;-59
2022/11/27 15:19:02;;;;;;;15.48;10.32;;;23.30;49.90;;;;;;7714791;22;83108;-60
2022/11/27 15:22:03;;;;;;;14.70;10.95;;;23.40;49.70;;;;;;7712641;22;83665;-58
2022/11/27 15:25:03;;;;;;;16.60;11.80;;;23.30;49.70;;;;;;7714840;22;83321;-61
2022/11/27 15:28:04;;;;;;;17.65;11.77;;;23.40;49.60;;;;;;7713585;22;82920;-61
2022/11/27 15:31:04;;;;;;;17.73;12.13;;;23.40;49.40;;;;;;7710596;22;83369;-62
2022/11/27 15:34:05;;;;;;;16.33;11.18;;;23.50;49.50;;;;;;7713213;22;83061;-62